Time;durP1;ratioP1;P1;durP2;ratioP2;P2;SDS_P1;SDS_P2;PMS_P1;PMS_P2;Temp;Humidity;BMP_temperature;BMP_pressure;BME280_temperature;BME280_humidity;BME280_pressure;Samples;Min_cycle;Max_cycle;Signal;HPM_P1;HPM_P2
2022/03/12 00:00:09;;;;;;;;;;;;;;;;;;351274;28;939;-78
2022/03/12 00:00:24;;;;;;;;;;;;;;;;;;351416;28;825;-78
2022/03/12 00:00:35;;;;;;;;;;;;;;;;;;351423;28;778;-78
2022/03/12 00:00:48;;;;;;;;;;;;;;;;;;351211;28;1397;-77
2022/03/12 00:00:58;;;;;;;;;;;;;;;;;;350994;28;1543;-76
2022/03/12 00:01:09;;;;;;;;;;;;;;;;;;351116;28;1488;-77
2022/03/12 00:01:21;;;;;;;;;;;;;;;;;;351285;28;797;-78
2022/03/12 00:01:31;;;;;;;;;;;;;;;;;;351228;28;927;-78
2022/03/12 00:01:42;;;;;;;;;;;;;;;;;;351224;28;853;-78
2022/03/12 00:01:53;;;;;;;;;;;;;;;;;;351258;28;975;-78
2022/03/12 00:02:03;;;;;;;;;;;;;;;;;;350891;28;1548;-78
2022/03/12 00:02:13;;;;;;;;;;;;;;;;;;351094;28;889;-78
2022/03/12 00:02:24;;;;;;;;;;;;;;;;;;351121;28;952;-78
2022/03/12 00:02:34;;;;;;;;;;;;;;;;;;351089;28;1195;-78
2022/03/12 00:02:44;;;;;;;;;;;;;;;;;;351347;28;912;-78
2022/03/12 00:02:55;;;;;;;;;;;;;;;;;;351327;28;988;-78
2022/03/12 00:03:05;;;;;;;;;;;;;;;;;;351271;28;856;-77
2022/03/12 00:03:15;;;;;;;;;;;;;;;;;;351321;28;909;-77
2022/03/12 00:03:25;;;;;;;;;;;;;;;;;;351385;28;936;-77
2022/03/12 00:03:36;;;;;;;;;;;;;;;;;;351302;28;913;-78
2022/03/12 00:03:47;;;;;;;;;;;;;;;;;;351317;28;988;-78
2022/03/12 00:04:00;;;;;;;;;;;;;;;;;;351376;28;817;-78
2022/03/12 00:04:11;;;;;;;;;;;;;;;;;;351242;28;1023;-78
2022/03/12 00:04:21;;;;;;;;;;;;;;;;;;350345;28;1453;-78
2022/03/12 00:04:31;;;;;;;;;;;;;;;;;;349949;28;869;-77
2022/03/12 00:04:42;;;;;;;;;;;;;;;;;;349911;28;992;-77
2022/03/12 00:04:53;;;;;;;;;;;;;;;;;;349993;28;763;-78
2022/03/12 00:05:07;;;;;;;;;;;;;;;;;;349880;28;1038;-78
2022/03/12 00:05:18;;;;;;;;;;;;;;;;;;349995;28;856;-78
2022/03/12 00:05:30;;;;;;;;;;;;;;;;;;349938;28;909;-78
2022/03/12 00:05:52;;;;;;;;;;;;;;;;;;349915;28;882;-78
2022/03/12 00:06:03;;;;;;;;;;;;;;;;;;349904;28;873;-78
2022/03/12 00:06:15;;;;;;;;;;;;;;;;;;349834;28;953;-78
2022/03/12 00:06:25;;;;;;;;;;;;;;;;;;349875;28;933;-78
2022/03/12 00:06:36;;;;;;;;;;;;;;;;;;349910;28;925;-78
2022/03/12 00:06:46;;;;;;;;;;;;;;;;;;349911;28;945;-78
2022/03/12 00:06:58;;;;;;;;;;;;;;;;;;349867;28;973;-78
2022/03/12 00:07:11;;;;;;;;;;;;;;;;;;349896;28;766;-78
2022/03/12 00:07:21;;;;;;;;;;;;;;;;;;349839;28;1551;-77
2022/03/12 00:07:31;;;;;;;;;;;;;;;;;;351236;28;1436;-78
2022/03/12 00:07:43;;;;;;;;;;;;;;;;;;350476;28;1527;-78
2022/03/12 00:07:54;;;;;;;;;;;;;;;;;;349904;28;1024;-78
2022/03/12 00:08:04;;;;;;;;;;;;;;;;;;350004;28;790;-78
2022/03/12 00:08:15;;;;;;;;;;;;;;;;;;349934;28;783;-78
2022/03/12 00:08:34;;;;;;;;;;;;;;;;;;349951;28;876;-78
2022/03/12 00:08:45;;;;;;;;;;;;;;;;;;349997;28;869;-78
2022/03/12 00:08:56;;;;;;;;;;;;;;;;;;349967;28;872;-78
2022/03/12 00:09:06;;;;;;;;;;;;;;;;;;349823;28;1015;-78
2022/03/12 00:09:16;;;;;;;;;;;;;;;;;;349874;28;905;-78
2022/03/12 00:09:26;;;;;;;;;;;;;;;;;;349953;28;768;-78
2022/03/12 00:09:37;;;;;;;;;;;;;;;;;;349954;28;968;-78
2022/03/12 00:09:48;;;;;;;;;;;;;;;;;;349925;28;921;-78
2022/03/12 00:09:58;;;;;;;;;;;;;;;;;;350582;28;1519;-78
2022/03/12 00:10:13;;;;;;;;;;;;;;;;;;351329;28;994;-78
2022/03/12 00:10:23;;;;;;;;;;;;;;;;;;351383;28;988;-78
2022/03/12 00:10:33;;;;;;;;;;;;;;;;;;351364;28;969;-78
2022/03/12 00:10:50;;;;;;;;;;;;;;;;;;351262;28;1123;-78
2022/03/12 00:11:01;;;;;;;;;;;;;;;;;;351353;28;1011;-78
2022/03/12 00:11:13;;;;;;;;;;;;;;;;;;351350;28;932;-77
2022/03/12 00:11:25;;;;;;;;;;;;;;;;;;351155;28;1006;-78
2022/03/12 00:11:46;;;;;;;;;;;;;;;;;;351351;28;986;-78
2022/03/12 00:12:00;;;;;;;;;;;;;;;;;;351207;28;1593;-78
2022/03/12 00:12:13;;;;;;;;;;;;;;;;;;351376;28;845;-78
2022/03/12 00:12:24;;;;;;;;;;;;;;;;;;351339;28;939;-79
2022/03/12 00:12:36;;;;;;;;;;;;;;;;;;351282;28;911;-79
2022/03/12 00:12:47;;;;;;;;;;;;;;;;;;351352;28;935;-78
2022/03/12 00:12:57;;;;;;;;;;;;;;;;;;351363;28;932;-77
2022/03/12 00:13:07;;;;;;;;;;;;;;;;;;351389;28;908;-77
2022/03/12 00:13:21;;;;;;;;;;;;;;;;;;351267;28;838;-76
2022/03/12 00:13:32;;;;;;;;;;;;;;;;;;351263;28;1007;-78
2022/03/12 00:13:43;;;;;;;;;;;;;;;;;;351320;28;920;-78
2022/03/12 00:13:54;;;;;;;;;;;;;;;;;;351319;28;897;-78
2022/03/12 00:14:05;;;;;;;;;;;;;;;;;;351394;28;912;-78
2022/03/12 00:14:15;;;;;;;;;;;;;;;;;;351367;28;974;-79
2022/03/12 00:14:28;;;;;;;;;;;;;;;;;;350027;28;1639;-78
2022/03/12 00:14:39;;;;;;;;;;;;;;;;;;349974;28;820;-78
2022/03/12 00:14:49;;;;;;;;;;;;;;;;;;349732;28;1115;-78
2022/03/12 00:15:02;;;;;;;;;;;;;;;;;;351260;28;939;-78
2022/03/12 00:15:14;;;;;;;;;;;;;;;;;;351249;28;948;-78
2022/03/12 00:15:24;;;;;;;;;;;;;;;;;;351131;28;940;-78
2022/03/12 00:15:37;;;;;;;;;;;;;;;;;;351280;28;860;-78
2022/03/12 00:15:50;;;;;;;;;;;;;;;;;;351213;28;1050;-78
2022/03/12 00:16:00;;;;;;;;;;;;;;;;;;351259;28;948;-78
2022/03/12 00:16:15;;;;;;;;;;;;;;;;;;351222;28;939;-78
2022/03/12 00:16:26;;;;;;;;;;;;;;;;;;351232;28;951;-78
2022/03/12 00:16:37;;;;;;;;;;;;;;;;;;351226;28;964;-78
2022/03/12 00:16:48;;;;;;;;;;;;;;;;;;352169;28;852;-78
2022/03/12 00:16:59;;;;;;;;;;;;;;;;;;350515;28;871;-78
2022/03/12 00:17:11;;;;;;;;;;;;;;;;;;349969;28;762;-78
2022/03/12 00:17:22;;;;;;;;;;;;;;;;;;349681;28;1245;-77
2022/03/12 00:17:33;;;;;;;;;;;;;;;;;;349798;28;1003;-78
2022/03/12 00:17:45;;;;;;;;;;;;;;;;;;349803;28;937;-78
2022/03/12 00:17:55;;;;;;;;;;;;;;;;;;349844;28;987;-78
2022/03/12 00:18:11;;;;;;;;;;;;;;;;;;349838;28;964;-78
2022/03/12 00:18:21;;;;;;;;;;;;;;;;;;349866;28;893;-78
2022/03/12 00:18:34;;;;;;;;;;;;;;;;;;349828;28;887;-78
2022/03/12 00:18:47;;;;;;;;;;;;;;;;;;349832;28;1040;-78
2022/03/12 00:19:01;;;;;;;;;;;;;;;;;;349988;28;1540;-78
2022/03/12 00:19:11;;;;;;;;;;;;;;;;;;350251;28;1468;-78
2022/03/12 00:19:21;;;;;;;;;;;;;;;;;;351308;28;951;-78
2022/03/12 00:19:32;;;;;;;;;;;;;;;;;;351306;28;1051;-78
2022/03/12 00:19:42;;;;;;;;;;;;;;;;;;351246;28;924;-78
2022/03/12 00:19:54;;;;;;;;;;;;;;;;;;351374;28;908;-77
2022/03/12 00:20:12;;;;;;;;;;;;;;;;;;351261;28;1977;-78
2022/03/12 00:20:28;;;;;;;;;;;;;;;;;;351341;28;860;-78
2022/03/12 00:20:38;;;;;;;;;;;;;;;;;;351337;28;936;-78
2022/03/12 00:20:50;;;;;;;;;;;;;;;;;;351328;28;963;-78
2022/03/12 00:21:02;;;;;;;;;;;;;;;;;;351359;28;893;-78
2022/03/12 00:21:12;;;;;;;;;;;;;;;;;;351344;28;975;-78
2022/03/12 00:21:24;;;;;;;;;;;;;;;;;;351336;28;901;-78
2022/03/12 00:21:35;;;;;;;;;;;;;;;;;;351298;28;1031;-78
2022/03/12 00:21:48;;;;;;;;;;;;;;;;;;351326;28;812;-78
2022/03/12 00:22:03;;;;;;;;;;;;;;;;;;351302;28;1006;-77
2022/03/12 00:22:14;;;;;;;;;;;;;;;;;;351333;28;1195;-78
2022/03/12 00:22:28;;;;;;;;;;;;;;;;;;351013;28;1658;-78
2022/03/12 00:22:41;;;;;;;;;;;;;;;;;;349850;28;1116;-77
2022/03/12 00:22:52;;;;;;;;;;;;;;;;;;349817;28;1792;-77
2022/03/12 00:23:02;;;;;;;;;;;;;;;;;;349916;28;1205;-77
2022/03/12 00:23:15;;;;;;;;;;;;;;;;;;350014;28;897;-78
2022/03/12 00:23:26;;;;;;;;;;;;;;;;;;349914;28;945;-78
2022/03/12 00:23:36;;;;;;;;;;;;;;;;;;349842;28;984;-78
2022/03/12 00:23:50;;;;;;;;;;;;;;;;;;349886;28;861;-78
2022/03/12 00:24:00;;;;;;;;;;;;;;;;;;349920;28;1018;-78
2022/03/12 00:24:15;;;;;;;;;;;;;;;;;;349936;28;936;-78
2022/03/12 00:24:26;;;;;;;;;;;;;;;;;;349882;28;929;-78
2022/03/12 00:24:41;;;;;;;;;;;;;;;;;;349944;28;889;-78
2022/03/12 00:24:52;;;;;;;;;;;;;;;;;;349906;28;928;-78
2022/03/12 00:25:04;;;;;;;;;;;;;;;;;;349954;28;929;-78
2022/03/12 00:25:18;;;;;;;;;;;;;;;;;;349967;28;943;-78
2022/03/12 00:25:28;;;;;;;;;;;;;;;;;;349938;28;1015;-78
2022/03/12 00:25:41;;;;;;;;;;;;;;;;;;349924;28;936;-78
2022/03/12 00:25:51;;;;;;;;;;;;;;;;;;349885;28;971;-78
2022/03/12 00:26:02;;;;;;;;;;;;;;;;;;349916;28;936;-78
2022/03/12 00:26:14;;;;;;;;;;;;;;;;;;349972;28;841;-78
2022/03/12 00:26:24;;;;;;;;;;;;;;;;;;349946;28;924;-78
2022/03/12 00:26:37;;;;;;;;;;;;;;;;;;349801;28;1000;-78
2022/03/12 00:26:49;;;;;;;;;;;;;;;;;;349952;28;997;-78
2022/03/12 00:27:00;;;;;;;;;;;;;;;;;;349956;28;916;-78
2022/03/12 00:27:10;;;;;;;;;;;;;;;;;;349889;28;1003;-78
2022/03/12 00:27:21;;;;;;;;;;;;;;;;;;350010;28;952;-78
2022/03/12 00:27:31;;;;;;;;;;;;;;;;;;349945;28;916;-78
2022/03/12 00:27:41;;;;;;;;;;;;;;;;;;349866;28;960;-78
2022/03/12 00:27:52;;;;;;;;;;;;;;;;;;349932;28;976;-78
2022/03/12 00:28:03;;;;;;;;;;;;;;;;;;349924;28;940;-78
2022/03/12 00:28:15;;;;;;;;;;;;;;;;;;349927;28;869;-78
2022/03/12 00:28:26;;;;;;;;;;;;;;;;;;350631;28;1566;-77
2022/03/12 00:28:36;;;;;;;;;;;;;;;;;;350005;28;1569;-78
2022/03/12 00:28:47;;;;;;;;;;;;;;;;;;349910;28;928;-78
2022/03/12 00:28:58;;;;;;;;;;;;;;;;;;349979;28;935;-78
2022/03/12 00:29:14;;;;;;;;;;;;;;;;;;349907;28;920;-78
2022/03/12 00:29:25;;;;;;;;;;;;;;;;;;349931;28;963;-77
2022/03/12 00:29:36;;;;;;;;;;;;;;;;;;349903;28;960;-77
2022/03/12 00:29:48;;;;;;;;;;;;;;;;;;349979;28;888;-78
2022/03/12 00:30:02;;;;;;;;;;;;;;;;;;349919;28;1655;-78
2022/03/12 00:30:21;;;;;;;;;;;;;;;;;;349947;28;880;-78
2022/03/12 00:30:34;;;;;;;;;;;;;;;;;;349941;28;802;-78
2022/03/12 00:30:49;;;;;;;;;;;;;;;;;;349929;28;798;-78
2022/03/12 00:30:59;;;;;;;;;;;;;;;;;;349902;28;1106;-78
2022/03/12 00:31:10;;;;;;;;;;;;;;;;;;349930;28;924;-78
2022/03/12 00:31:21;;;;;;;;;;;;;;;;;;349948;28;797;-78
2022/03/12 00:31:33;;;;;;;;;;;;;;;;;;349881;28;916;-78
2022/03/12 00:31:45;;;;;;;;;;;;;;;;;;349962;28;924;-78
2022/03/12 00:31:56;;;;;;;;;;;;;;;;;;349981;28;999;-78
2022/03/12 00:32:07;;;;;;;;;;;;;;;;;;349867;28;916;-78
2022/03/12 00:32:17;;;;;;;;;;;;;;;;;;349933;28;819;-78
2022/03/12 00:32:27;;;;;;;;;;;;;;;;;;349947;28;882;-77
2022/03/12 00:32:38;;;;;;;;;;;;;;;;;;349899;28;917;-78
2022/03/12 00:32:49;;;;;;;;;;;;;;;;;;349910;28;810;-78
2022/03/12 00:32:59;;;;;;;;;;;;;;;;;;349977;28;924;-78
2022/03/12 00:33:10;;;;;;;;;;;;;;;;;;349841;28;965;-77
2022/03/12 00:33:21;;;;;;;;;;;;;;;;;;349953;28;860;-78
2022/03/12 00:33:31;;;;;;;;;;;;;;;;;;349882;28;983;-78
2022/03/12 00:33:41;;;;;;;;;;;;;;;;;;349868;28;928;-78
2022/03/12 00:33:51;;;;;;;;;;;;;;;;;;349950;28;915;-78
2022/03/12 00:34:02;;;;;;;;;;;;;;;;;;350004;28;893;-78
2022/03/12 00:34:13;;;;;;;;;;;;;;;;;;349817;28;913;-78
2022/03/12 00:34:23;;;;;;;;;;;;;;;;;;350000;28;846;-78
2022/03/12 00:34:34;;;;;;;;;;;;;;;;;;349930;28;901;-78
2022/03/12 00:34:44;;;;;;;;;;;;;;;;;;349891;28;972;-77
2022/03/12 00:34:54;;;;;;;;;;;;;;;;;;349912;28;1012;-78
2022/03/12 00:35:05;;;;;;;;;;;;;;;;;;349950;28;936;-78
2022/03/12 00:35:16;;;;;;;;;;;;;;;;;;349938;28;956;-78
2022/03/12 00:35:26;;;;;;;;;;;;;;;;;;349974;28;820;-78
2022/03/12 00:35:36;;;;;;;;;;;;;;;;;;349900;28;981;-78
2022/03/12 00:35:47;;;;;;;;;;;;;;;;;;349918;28;961;-78
2022/03/12 00:35:58;;;;;;;;;;;;;;;;;;349949;28;782;-77
2022/03/12 00:36:09;;;;;;;;;;;;;;;;;;350146;28;1051;-78
2022/03/12 00:36:19;;;;;;;;;;;;;;;;;;349870;28;928;-78
2022/03/12 00:36:29;;;;;;;;;;;;;;;;;;349926;28;854;-78
2022/03/12 00:36:41;;;;;;;;;;;;;;;;;;349930;28;1035;-78
2022/03/12 00:36:51;;;;;;;;;;;;;;;;;;349881;28;909;-77
2022/03/12 00:37:01;;;;;;;;;;;;;;;;;;349969;28;1643;-77
2022/03/12 00:37:11;;;;;;;;;;;;;;;;;;350387;28;1724;-77
2022/03/12 00:37:22;;;;;;;;;;;;;;;;;;350951;28;1803;-78
2022/03/12 00:37:32;;;;;;;;;;;;;;;;;;350602;28;1529;-78
2022/03/12 00:37:42;;;;;;;;;;;;;;;;;;351328;28;972;-78
2022/03/12 00:37:53;;;;;;;;;;;;;;;;;;351317;28;849;-78
2022/03/12 00:38:03;;;;;;;;;;;;;;;;;;351355;28;1189;-78
2022/03/12 00:38:14;;;;;;;;;;;;;;;;;;351344;28;916;-76
2022/03/12 00:38:25;;;;;;;;;;;;;;;;;;351272;28;991;-77
2022/03/12 00:38:35;;;;;;;;;;;;;;;;;;351250;28;1029;-76
2022/03/12 00:38:46;;;;;;;;;;;;;;;;;;351378;28;1272;-77
2022/03/12 00:38:57;;;;;;;;;;;;;;;;;;351317;28;842;-78
2022/03/12 00:39:08;;;;;;;;;;;;;;;;;;351378;28;830;-78
2022/03/12 00:39:19;;;;;;;;;;;;;;;;;;351338;28;999;-77
2022/03/12 00:39:29;;;;;;;;;;;;;;;;;;351150;28;1523;-77
2022/03/12 00:39:41;;;;;;;;;;;;;;;;;;351287;28;968;-78
2022/03/12 00:39:51;;;;;;;;;;;;;;;;;;351266;28;1047;-77
2022/03/12 00:40:03;;;;;;;;;;;;;;;;;;351256;28;1909;-78
2022/03/12 00:40:15;;;;;;;;;;;;;;;;;;351312;28;1100;-77
2022/03/12 00:40:25;;;;;;;;;;;;;;;;;;351232;28;936;-78
2022/03/12 00:40:36;;;;;;;;;;;;;;;;;;351298;28;1000;-77
2022/03/12 00:40:46;;;;;;;;;;;;;;;;;;351375;28;912;-78
2022/03/12 00:40:57;;;;;;;;;;;;;;;;;;351305;28;924;-78
2022/03/12 00:41:07;;;;;;;;;;;;;;;;;;351256;28;968;-78
2022/03/12 00:41:18;;;;;;;;;;;;;;;;;;351339;28;960;-78
2022/03/12 00:41:29;;;;;;;;;;;;;;;;;;351331;28;944;-79
2022/03/12 00:41:42;;;;;;;;;;;;;;;;;;351358;28;845;-78
2022/03/12 00:41:53;;;;;;;;;;;;;;;;;;351288;28;952;-78
2022/03/12 00:42:03;;;;;;;;;;;;;;;;;;351364;28;833;-78
2022/03/12 00:42:13;;;;;;;;;;;;;;;;;;351373;28;846;-78
2022/03/12 00:42:24;;;;;;;;;;;;;;;;;;351288;28;855;-78
2022/03/12 00:42:34;;;;;;;;;;;;;;;;;;351230;28;904;-78
2022/03/12 00:42:44;;;;;;;;;;;;;;;;;;351307;28;988;-78
2022/03/12 00:42:54;;;;;;;;;;;;;;;;;;351329;28;829;-78
2022/03/12 00:43:05;;;;;;;;;;;;;;;;;;351319;28;936;-78
2022/03/12 00:43:15;;;;;;;;;;;;;;;;;;351003;28;1456;-78
2022/03/12 00:43:25;;;;;;;;;;;;;;;;;;351140;28;998;-78
2022/03/12 00:43:36;;;;;;;;;;;;;;;;;;351366;28;849;-78
2022/03/12 00:43:46;;;;;;;;;;;;;;;;;;351348;28;846;-78
2022/03/12 00:43:56;;;;;;;;;;;;;;;;;;350776;28;1706;-78
2022/03/12 00:44:07;;;;;;;;;;;;;;;;;;349900;28;1697;-76
2022/03/12 00:44:17;;;;;;;;;;;;;;;;;;349881;28;972;-77
2022/03/12 00:44:27;;;;;;;;;;;;;;;;;;349935;28;936;-77
2022/03/12 00:44:38;;;;;;;;;;;;;;;;;;349866;28;849;-78
2022/03/12 00:44:48;;;;;;;;;;;;;;;;;;349940;28;1075;-77
2022/03/12 00:44:58;;;;;;;;;;;;;;;;;;348654;28;2465;-78
2022/03/12 00:45:10;;;;;;;;;;;;;;;;;;351297;28;928;-78
2022/03/12 00:45:20;;;;;;;;;;;;;;;;;;351328;28;792;-78
2022/03/12 00:45:31;;;;;;;;;;;;;;;;;;351299;28;967;-78
2022/03/12 00:45:42;;;;;;;;;;;;;;;;;;351229;28;1081;-78
2022/03/12 00:45:52;;;;;;;;;;;;;;;;;;351181;28;988;-78
2022/03/12 00:46:05;;;;;;;;;;;;;;;;;;351147;28;1545;-78
2022/03/12 00:46:15;;;;;;;;;;;;;;;;;;351277;28;1004;-78
2022/03/12 00:46:25;;;;;;;;;;;;;;;;;;351331;28;960;-78
2022/03/12 00:46:35;;;;;;;;;;;;;;;;;;351263;28;885;-78
2022/03/12 00:46:46;;;;;;;;;;;;;;;;;;351262;28;964;-78
2022/03/12 00:46:56;;;;;;;;;;;;;;;;;;351241;28;1018;-78
2022/03/12 00:47:07;;;;;;;;;;;;;;;;;;351181;28;998;-78
2022/03/12 00:47:17;;;;;;;;;;;;;;;;;;351319;28;876;-78
2022/03/12 00:47:28;;;;;;;;;;;;;;;;;;351314;28;972;-78
2022/03/12 00:47:38;;;;;;;;;;;;;;;;;;351249;28;1612;-78
2022/03/12 00:47:50;;;;;;;;;;;;;;;;;;351300;28;909;-78
2022/03/12 00:48:00;;;;;;;;;;;;;;;;;;351240;28;920;-78
2022/03/12 00:48:10;;;;;;;;;;;;;;;;;;351311;28;917;-78
2022/03/12 00:48:21;;;;;;;;;;;;;;;;;;351280;28;837;-78
2022/03/12 00:48:32;;;;;;;;;;;;;;;;;;351313;28;968;-78
2022/03/12 00:48:42;;;;;;;;;;;;;;;;;;351239;28;809;-78
2022/03/12 00:48:52;;;;;;;;;;;;;;;;;;351359;28;784;-78
2022/03/12 00:49:03;;;;;;;;;;;;;;;;;;351336;28;857;-78
2022/03/12 00:49:13;;;;;;;;;;;;;;;;;;351328;28;1027;-78
2022/03/12 00:49:23;;;;;;;;;;;;;;;;;;351278;28;909;-76
2022/03/12 00:49:34;;;;;;;;;;;;;;;;;;351325;28;932;-78
2022/03/12 00:49:44;;;;;;;;;;;;;;;;;;351352;28;900;-78
2022/03/12 00:49:54;;;;;;;;;;;;;;;;;;351276;27;929;-78
2022/03/12 00:50:05;;;;;;;;;;;;;;;;;;351110;28;932;-78
2022/03/12 00:50:16;;;;;;;;;;;;;;;;;;351036;28;1507;-77
2022/03/12 00:50:26;;;;;;;;;;;;;;;;;;351213;28;869;-78
2022/03/12 00:50:37;;;;;;;;;;;;;;;;;;351182;28;786;-78
2022/03/12 00:50:47;;;;;;;;;;;;;;;;;;351159;28;936;-78
2022/03/12 00:50:57;;;;;;;;;;;;;;;;;;351212;28;804;-77
2022/03/12 00:51:09;;;;;;;;;;;;;;;;;;351156;28;806;-77
2022/03/12 00:51:20;;;;;;;;;;;;;;;;;;351197;28;857;-78
2022/03/12 00:51:30;;;;;;;;;;;;;;;;;;351088;28;1070;-77
2022/03/12 00:51:41;;;;;;;;;;;;;;;;;;351145;28;960;-78
2022/03/12 00:51:52;;;;;;;;;;;;;;;;;;351172;28;924;-78
2022/03/12 00:52:02;;;;;;;;;;;;;;;;;;351236;28;896;-77
2022/03/12 00:52:12;;;;;;;;;;;;;;;;;;351107;28;753;-77
2022/03/12 00:52:23;;;;;;;;;;;;;;;;;;351192;28;956;-77
2022/03/12 00:52:33;;;;;;;;;;;;;;;;;;351188;28;952;-78
2022/03/12 00:52:43;;;;;;;;;;;;;;;;;;351116;28;920;-78
2022/03/12 00:52:53;;;;;;;;;;;;;;;;;;351142;28;925;-78
2022/03/12 00:53:04;;;;;;;;;;;;;;;;;;351133;28;979;-78
2022/03/12 00:53:14;;;;;;;;;;;;;;;;;;351096;28;924;-78
2022/03/12 00:53:24;;;;;;;;;;;;;;;;;;351196;28;936;-78
2022/03/12 00:53:36;;;;;;;;;;;;;;;;;;351173;28;916;-78
2022/03/12 00:53:46;;;;;;;;;;;;;;;;;;350230;28;1635;-77
2022/03/12 00:53:57;;;;;;;;;;;;;;;;;;351206;28;884;-78
2022/03/12 00:54:07;;;;;;;;;;;;;;;;;;351167;28;928;-72
2022/03/12 00:54:17;;;;;;;;;;;;;;;;;;351175;28;976;-71
2022/03/12 00:54:27;;;;;;;;;;;;;;;;;;351198;28;909;-71
2022/03/12 00:54:37;;;;;;;;;;;;;;;;;;351189;28;865;-71
2022/03/12 00:54:48;;;;;;;;;;;;;;;;;;351149;28;953;-71
2022/03/12 00:54:58;;;;;;;;;;;;;;;;;;351142;28;1046;-71
2022/03/12 00:55:09;;;;;;;;;;;;;;;;;;351114;28;975;-71
2022/03/12 00:55:19;;;;;;;;;;;;;;;;;;351185;28;932;-71
2022/03/12 00:55:29;;;;;;;;;;;;;;;;;;351139;28;967;-71
2022/03/12 00:55:40;;;;;;;;;;;;;;;;;;351212;28;809;-71
2022/03/12 00:55:51;;;;;;;;;;;;;;;;;;351270;28;865;-71
2022/03/12 00:56:02;;;;;;;;;;;;;;;;;;351335;28;849;-72
2022/03/12 00:56:12;;;;;;;;;;;;;;;;;;351250;28;941;-71
2022/03/12 00:56:23;;;;;;;;;;;;;;;;;;351315;28;948;-71
2022/03/12 00:56:33;;;;;;;;;;;;;;;;;;351280;28;1042;-71
2022/03/12 00:56:43;;;;;;;;;;;;;;;;;;351354;28;973;-71
2022/03/12 00:56:53;;;;;;;;;;;;;;;;;;351221;28;897;-71
2022/03/12 00:57:04;;;;;;;;;;;;;;;;;;351268;28;967;-71
2022/03/12 00:57:14;;;;;;;;;;;;;;;;;;351329;28;790;-71
2022/03/12 00:57:24;;;;;;;;;;;;;;;;;;351322;28;952;-71
2022/03/12 00:57:34;;;;;;;;;;;;;;;;;;351283;28;1011;-71
2022/03/12 00:57:45;;;;;;;;;;;;;;;;;;351256;28;987;-71
2022/03/12 00:57:55;;;;;;;;;;;;;;;;;;351324;28;976;-71
2022/03/12 00:58:05;;;;;;;;;;;;;;;;;;351179;28;1171;-71
2022/03/12 00:58:16;;;;;;;;;;;;;;;;;;351292;28;829;-71
2022/03/12 00:58:26;;;;;;;;;;;;;;;;;;351342;28;948;-71
2022/03/12 00:58:37;;;;;;;;;;;;;;;;;;351283;28;897;-71
2022/03/12 00:58:47;;;;;;;;;;;;;;;;;;351329;28;972;-71
2022/03/12 00:58:58;;;;;;;;;;;;;;;;;;351326;28;801;-71
2022/03/12 00:59:08;;;;;;;;;;;;;;;;;;351302;28;841;-71
2022/03/12 00:59:18;;;;;;;;;;;;;;;;;;351218;28;940;-71
2022/03/12 00:59:28;;;;;;;;;;;;;;;;;;351326;28;773;-71
2022/03/12 00:59:39;;;;;;;;;;;;;;;;;;351345;28;837;-71
2022/03/12 00:59:49;;;;;;;;;;;;;;;;;;351295;28;1078;-71
2022/03/12 00:59:59;;;;;;;;;;;;;;;;;;351174;28;1981;-71
2022/03/12 01:00:14;;;;;;;;;;;;;;;;;;351185;28;999;-71
2022/03/12 01:00:25;;;;;;;;;;;;;;;;;;351338;28;814;-71
2022/03/12 01:00:35;;;;;;;;;;;;;;;;;;351307;28;798;-71
2022/03/12 01:00:45;;;;;;;;;;;;;;;;;;351173;28;1018;-71
2022/03/12 01:00:56;;;;;;;;;;;;;;;;;;350186;28;1718;-71
2022/03/12 01:01:06;;;;;;;;;;;;;;;;;;349897;28;1047;-71
2022/03/12 01:01:17;;;;;;;;;;;;;;;;;;349840;28;980;-71
2022/03/12 01:01:27;;;;;;;;;;;;;;;;;;349901;28;987;-71
2022/03/12 01:01:37;;;;;;;;;;;;;;;;;;350411;28;1480;-71
2022/03/12 01:01:47;;;;;;;;;;;;;;;;;;351336;28;1173;-71
2022/03/12 01:01:58;;;;;;;;;;;;;;;;;;351251;28;902;-72
2022/03/12 01:02:10;;;;;;;;;;;;;;;;;;351330;28;830;-71
2022/03/12 01:02:20;;;;;;;;;;;;;;;;;;351022;28;1549;-71
2022/03/12 01:02:30;;;;;;;;;;;;;;;;;;351234;28;1580;-71
2022/03/12 01:02:41;;;;;;;;;;;;;;;;;;351326;28;997;-71
2022/03/12 01:02:51;;;;;;;;;;;;;;;;;;351278;28;920;-71
2022/03/12 01:03:01;;;;;;;;;;;;;;;;;;351271;28;1030;-71
2022/03/12 01:03:11;;;;;;;;;;;;;;;;;;351270;28;921;-71
2022/03/12 01:03:22;;;;;;;;;;;;;;;;;;351268;28;790;-71
2022/03/12 01:03:32;;;;;;;;;;;;;;;;;;351328;28;976;-71
2022/03/12 01:03:42;;;;;;;;;;;;;;;;;;351280;28;829;-72
2022/03/12 01:03:53;;;;;;;;;;;;;;;;;;351322;28;845;-71
2022/03/12 01:04:03;;;;;;;;;;;;;;;;;;351302;28;960;-71
2022/03/12 01:04:13;;;;;;;;;;;;;;;;;;351205;28;1168;-71
2022/03/12 01:04:23;;;;;;;;;;;;;;;;;;351297;28;932;-71
2022/03/12 01:04:34;;;;;;;;;;;;;;;;;;351247;28;852;-71
2022/03/12 01:04:44;;;;;;;;;;;;;;;;;;351359;28;983;-71
2022/03/12 01:04:55;;;;;;;;;;;;;;;;;;351329;28;852;-71
2022/03/12 01:05:05;;;;;;;;;;;;;;;;;;351354;28;853;-71
2022/03/12 01:05:17;;;;;;;;;;;;;;;;;;353984;28;766;-71
2022/03/12 01:05:40;;;;;;;;;;;;;;;;;;353940;28;908;-72
2022/03/12 01:05:50;;;;;;;;;;;;;;;;;;354059;28;983;-71
2022/03/12 01:06:01;;;;;;;;;;;;;;;;;;354024;28;876;-72
2022/03/12 01:06:13;;;;;;;;;;;;;;;;;;354057;28;912;-72
2022/03/12 01:06:23;;;;;;;;;;;;;;;;;;353836;28;1002;-72
2022/03/12 01:06:37;;;;;;;;;;;;;;;;;;353991;28;805;-72
2022/03/12 01:06:48;;;;;;;;;;;;;;;;;;354055;28;948;-71
2022/03/12 01:06:58;;;;;;;;;;;;;;;;;;354059;28;876;-71
2022/03/12 01:07:11;;;;;;;;;;;;;;;;;;353485;28;860;-72
2022/03/12 01:07:22;;;;;;;;;;;;;;;;;;351008;28;1511;-71
2022/03/12 01:07:32;;;;;;;;;;;;;;;;;;351152;28;1472;-71
2022/03/12 01:07:43;;;;;;;;;;;;;;;;;;351258;28;941;-71
2022/03/12 01:07:54;;;;;;;;;;;;;;;;;;351328;28;853;-71
2022/03/12 01:08:04;;;;;;;;;;;;;;;;;;351298;28;972;-71
2022/03/12 01:08:15;;;;;;;;;;;;;;;;;;351352;28;812;-71
2022/03/12 01:08:26;;;;;;;;;;;;;;;;;;351280;28;877;-71
2022/03/12 01:08:36;;;;;;;;;;;;;;;;;;351322;28;1138;-71
2022/03/12 01:08:47;;;;;;;;;;;;;;;;;;351363;28;873;-71
2022/03/12 01:08:57;;;;;;;;;;;;;;;;;;351290;28;1022;-71
2022/03/12 01:09:10;;;;;;;;;;;;;;;;;;351282;28;805;-71
2022/03/12 01:09:20;;;;;;;;;;;;;;;;;;351357;28;924;-71
2022/03/12 01:09:31;;;;;;;;;;;;;;;;;;351345;28;889;-71
2022/03/12 01:09:41;;;;;;;;;;;;;;;;;;351190;28;987;-71
2022/03/12 01:09:51;;;;;;;;;;;;;;;;;;351228;28;1576;-70
2022/03/12 01:10:02;;;;;;;;;;;;;;;;;;349892;28;1705;-71
2022/03/12 01:10:13;;;;;;;;;;;;;;;;;;349957;28;838;-71
2022/03/12 01:10:23;;;;;;;;;;;;;;;;;;349889;28;984;-72
2022/03/12 01:10:33;;;;;;;;;;;;;;;;;;349882;28;913;-71
2022/03/12 01:10:44;;;;;;;;;;;;;;;;;;349934;28;917;-71
2022/03/12 01:10:56;;;;;;;;;;;;;;;;;;349927;28;960;-71
2022/03/12 01:11:08;;;;;;;;;;;;;;;;;;349595;28;1024;-71
2022/03/12 01:11:18;;;;;;;;;;;;;;;;;;349735;28;1008;-71
2022/03/12 01:11:29;;;;;;;;;;;;;;;;;;349814;28;850;-71
2022/03/12 01:11:40;;;;;;;;;;;;;;;;;;349778;28;893;-71
2022/03/12 01:11:50;;;;;;;;;;;;;;;;;;349821;28;777;-71
2022/03/12 01:12:00;;;;;;;;;;;;;;;;;;349840;28;905;-71
2022/03/12 01:12:11;;;;;;;;;;;;;;;;;;349806;28;980;-71
2022/03/12 01:12:22;;;;;;;;;;;;;;;;;;349821;28;929;-71
2022/03/12 01:12:32;;;;;;;;;;;;;;;;;;349845;28;869;-71
2022/03/12 01:12:43;;;;;;;;;;;;;;;;;;349807;28;898;-71
2022/03/12 01:12:53;;;;;;;;;;;;;;;;;;349788;28;953;-71
2022/03/12 01:13:04;;;;;;;;;;;;;;;;;;349821;28;1045;-71
2022/03/12 01:13:14;;;;;;;;;;;;;;;;;;349912;28;968;-71
2022/03/12 01:13:25;;;;;;;;;;;;;;;;;;349848;28;996;-71
2022/03/12 01:13:35;;;;;;;;;;;;;;;;;;349970;28;1020;-71
2022/03/12 01:13:45;;;;;;;;;;;;;;;;;;350091;28;1046;-72
2022/03/12 01:13:56;;;;;;;;;;;;;;;;;;350158;28;971;-71
2022/03/12 01:14:09;;;;;;;;;;;;;;;;;;350089;28;882;-71
2022/03/12 01:14:19;;;;;;;;;;;;;;;;;;350194;28;924;-71
2022/03/12 01:14:30;;;;;;;;;;;;;;;;;;350146;28;1008;-71
2022/03/12 01:14:41;;;;;;;;;;;;;;;;;;350120;28;854;-72
2022/03/12 01:14:51;;;;;;;;;;;;;;;;;;350185;28;1015;-71
2022/03/12 01:15:03;;;;;;;;;;;;;;;;;;350173;28;836;-71
2022/03/12 01:15:13;;;;;;;;;;;;;;;;;;350189;28;793;-71
2022/03/12 01:15:23;;;;;;;;;;;;;;;;;;349877;28;1734;-72
2022/03/12 01:15:34;;;;;;;;;;;;;;;;;;350401;28;1815;-71
2022/03/12 01:15:45;;;;;;;;;;;;;;;;;;351413;28;1787;-71
2022/03/12 01:15:55;;;;;;;;;;;;;;;;;;351530;28;1026;-71
2022/03/12 01:16:06;;;;;;;;;;;;;;;;;;351523;28;948;-71
2022/03/12 01:16:16;;;;;;;;;;;;;;;;;;351591;28;988;-71
2022/03/12 01:16:26;;;;;;;;;;;;;;;;;;351330;28;1571;-71
2022/03/12 01:16:36;;;;;;;;;;;;;;;;;;351564;28;797;-71
2022/03/12 01:16:47;;;;;;;;;;;;;;;;;;351550;28;853;-71
2022/03/12 01:16:58;;;;;;;;;;;;;;;;;;351592;28;928;-71
2022/03/12 01:17:08;;;;;;;;;;;;;;;;;;351581;28;944;-71
2022/03/12 01:17:18;;;;;;;;;;;;;;;;;;351596;28;892;-71
2022/03/12 01:17:31;;;;;;;;;;;;;;;;;;351524;28;873;-71
2022/03/12 01:17:41;;;;;;;;;;;;;;;;;;351508;28;945;-71
2022/03/12 01:17:51;;;;;;;;;;;;;;;;;;351578;28;936;-71
2022/03/12 01:18:02;;;;;;;;;;;;;;;;;;351576;28;885;-71
2022/03/12 01:18:13;;;;;;;;;;;;;;;;;;351478;28;885;-71
2022/03/12 01:18:24;;;;;;;;;;;;;;;;;;351522;28;913;-71
2022/03/12 01:18:38;;;;;;;;;;;;;;;;;;351578;28;980;-71
2022/03/12 01:18:48;;;;;;;;;;;;;;;;;;351520;28;794;-71
2022/03/12 01:18:59;;;;;;;;;;;;;;;;;;351565;28;944;-72
2022/03/12 01:19:09;;;;;;;;;;;;;;;;;;351546;28;1018;-71
2022/03/12 01:19:19;;;;;;;;;;;;;;;;;;351525;28;956;-71